createdAt,value
2017-12-11T00:00:26.891Z,4.06
2017-12-11T00:01:32.507Z,4.05
2017-12-11T00:02:38.406Z,4.08
2017-12-11T00:03:45.642Z,4.06
2017-12-11T00:04:51.991Z,4.09
2017-12-11T00:05:57.558Z,4.10
2017-12-11T00:07:03.746Z,4.13
2017-12-11T00:08:09.935Z,4.13
2017-12-11T00:09:16.169Z,4.11
2017-12-11T00:10:22.341Z,4.08
2017-12-11T00:11:27.903Z,4.03
2017-12-11T00:12:33.780Z,4.03
2017-12-11T00:13:39.635Z,4.06
2017-12-11T00:14:45.436Z,4.12
2017-12-11T00:15:53.034Z,4.08
2017-12-11T00:16:58.635Z,4.00
2017-12-11T00:18:04.560Z,4.02
2017-12-11T00:19:10.808Z,3.98
2017-12-11T00:20:20.554Z,3.94
2017-12-11T00:21:26.765Z,3.95
2017-12-11T00:22:43.895Z,3.94
2017-12-11T00:23:49.860Z,3.90
2017-12-11T00:24:56.057Z,3.89
2017-12-11T00:26:02.290Z,3.86
2017-12-11T00:27:08.251Z,3.83
2017-12-11T00:28:13.786Z,3.88
2017-12-11T00:29:20.010Z,3.90
2017-12-11T00:30:26.180Z,3.93
2017-12-11T00:31:32.248Z,3.95
2017-12-11T00:32:38.083Z,4.02
2017-12-11T00:33:44.321Z,4.08
2017-12-11T00:34:50.523Z,4.09
2017-12-11T00:35:56.342Z,4.08
2017-12-11T00:37:02.556Z,4.08
2017-12-11T00:38:08.388Z,4.03
2017-12-11T00:39:14.570Z,4.04
2017-12-11T00:40:20.826Z,4.08
2017-12-11T00:41:27.045Z,4.10
2017-12-11T00:42:32.516Z,4.10
2017-12-11T00:43:37.746Z,4.09
2017-12-11T00:44:43.207Z,4.14
2017-12-11T00:45:49.123Z,4.14
2017-12-11T00:46:57.577Z,4.18
2017-12-11T00:48:05.937Z,4.13
2017-12-11T00:49:11.416Z,4.16
2017-12-11T00:50:18.608Z,4.12
2017-12-11T00:51:24.092Z,4.19
2017-12-11T00:52:29.936Z,4.28
2017-12-11T00:53:36.184Z,4.25
2017-12-11T00:54:42.029Z,4.29
2017-12-11T00:55:48.257Z,4.31
2017-12-11T00:56:54.432Z,4.36
2017-12-11T00:58:00.716Z,4.34
2017-12-11T00:59:08.818Z,4.27
2017-12-11T01:00:15.096Z,4.25
2017-12-11T01:01:21.052Z,4.30
2017-12-11T01:02:27.271Z,4.35
2017-12-11T01:03:33.149Z,4.30
2017-12-11T01:04:38.861Z,4.33
2017-12-11T01:05:44.116Z,4.33
2017-12-11T01:06:50.370Z,4.31
2017-12-11T01:07:55.863Z,4.40
2017-12-11T01:09:01.129Z,4.50
2017-12-11T01:10:06.390Z,4.47
2017-12-11T01:11:12.514Z,4.55
2017-12-11T01:12:19.328Z,4.59
2017-12-11T01:13:25.716Z,4.56
2017-12-11T01:14:32.031Z,4.51
2017-12-11T01:15:38.407Z,4.54
2017-12-11T01:16:44.913Z,4.54
2017-12-11T01:17:51.194Z,4.60
2017-12-11T01:18:58.346Z,4.59
2017-12-11T01:20:04.193Z,4.64
2017-12-11T01:21:10.231Z,4.63
2017-12-11T01:22:16.195Z,4.66
2017-12-11T01:23:22.459Z,4.60
2017-12-11T01:24:28.261Z,4.57
2017-12-11T01:25:34.111Z,4.55
2017-12-11T01:26:41.962Z,4.55
2017-12-11T01:27:48.271Z,4.57
2017-12-11T01:28:54.448Z,4.55
2017-12-11T01:30:00.646Z,4.56
2017-12-11T01:31:05.846Z,4.53
2017-12-11T01:32:12.079Z,4.49
2017-12-11T01:33:17.982Z,4.48
2017-12-11T01:34:24.350Z,4.52
2017-12-11T01:35:33.400Z,4.52
2017-12-11T01:36:39.612Z,4.55
2017-12-11T01:37:45.823Z,4.52
2017-12-11T01:38:52.005Z,4.51
2017-12-11T01:39:57.569Z,4.54
2017-12-11T01:41:03.094Z,4.52
2017-12-11T01:42:08.307Z,4.53
2017-12-11T01:43:13.821Z,4.58
2017-12-11T01:44:19.421Z,4.57
2017-12-11T01:45:24.711Z,4.62
2017-12-11T01:46:29.955Z,4.62
2017-12-11T01:47:37.528Z,4.62
2017-12-11T01:48:43.491Z,4.65
2017-12-11T01:49:49.035Z,4.64
2017-12-11T01:50:54.542Z,4.60
2017-12-11T01:52:00.097Z,4.54
2017-12-11T01:53:06.291Z,4.57
2017-12-11T01:54:12.493Z,4.61
2017-12-11T01:55:18.645Z,4.64
2017-12-11T01:56:24.836Z,4.66
2017-12-11T01:57:31.932Z,4.67
2017-12-11T01:58:38.154Z,4.72
2017-12-11T01:59:43.987Z,4.73
2017-12-11T02:00:50.176Z,4.71
2017-12-11T02:01:55.362Z,4.74
2017-12-11T02:03:01.197Z,4.72
2017-12-11T02:04:07.392Z,4.75
2017-12-11T02:05:13.636Z,4.80
2017-12-11T02:06:19.626Z,4.78
2017-12-11T02:07:25.780Z,4.78
2017-12-11T02:08:32.007Z,4.79
2017-12-11T02:09:38.675Z,4.82
2017-12-11T02:10:44.535Z,4.89
2017-12-11T02:11:50.506Z,4.90
2017-12-11T02:12:56.824Z,4.88
2017-12-11T02:14:03.043Z,4.92
2017-12-11T02:15:08.930Z,4.90
2017-12-11T02:16:14.781Z,4.91
2017-12-11T02:17:20.992Z,4.92
2017-12-11T02:18:26.854Z,4.94
2017-12-11T02:19:32.341Z,4.99
2017-12-11T02:20:38.165Z,5.00
2017-12-11T02:21:43.702Z,4.99
2017-12-11T02:22:49.432Z,4.94
2017-12-11T02:23:54.942Z,5.00
2017-12-11T02:25:00.485Z,4.99
2017-12-11T02:26:06.014Z,4.96
2017-12-11T02:27:11.496Z,4.88
2017-12-11T02:28:17.039Z,4.93
2017-12-11T02:29:22.601Z,4.90
2017-12-11T02:30:27.806Z,4.93
2017-12-11T02:31:33.013Z,4.96
2017-12-11T02:32:38.214Z,4.92
2017-12-11T02:33:43.548Z,4.91
2017-12-11T02:34:48.785Z,4.93
2017-12-11T02:35:54.019Z,4.96
2017-12-11T02:36:59.238Z,4.94
2017-12-11T02:38:05.052Z,4.94
2017-12-11T02:39:10.530Z,4.93
2017-12-11T02:40:16.274Z,4.87
2017-12-11T02:41:21.830Z,4.89
2017-12-11T02:42:27.491Z,4.88
2017-12-11T02:43:32.943Z,4.89
2017-12-11T02:44:38.442Z,4.88
2017-12-11T02:45:44.526Z,4.86
2017-12-11T02:46:49.726Z,4.88
2017-12-11T02:47:59.078Z,4.93
2017-12-11T02:49:04.384Z,4.95
2017-12-11T02:50:09.862Z,4.91
2017-12-11T02:51:15.811Z,4.96
2017-12-11T02:52:21.314Z,4.92
2017-12-11T02:53:26.531Z,4.93
2017-12-11T02:54:32.397Z,4.91
2017-12-11T02:55:38.729Z,4.90
2017-12-11T02:56:47.603Z,4.87
2017-12-11T02:57:53.803Z,4.87
2017-12-11T02:59:00.049Z,4.90
2017-12-11T03:00:06.257Z,4.91
2017-12-11T03:01:12.347Z,4.88
2017-12-11T03:02:18.545Z,4.87
2017-12-11T03:03:24.727Z,4.91
2017-12-11T03:04:30.894Z,4.88
2017-12-11T03:05:36.859Z,4.93
2017-12-11T03:06:42.362Z,4.91
2017-12-11T03:07:48.545Z,4.91
2017-12-11T03:08:54.760Z,4.92
2017-12-11T03:10:00.930Z,4.96
2017-12-11T03:11:06.851Z,5.02
2017-12-11T03:12:13.122Z,4.97
2017-12-11T03:13:18.978Z,4.96
2017-12-11T03:14:25.198Z,4.94
2017-12-11T03:15:30.708Z,4.93
2017-12-11T03:16:36.902Z,4.93
2017-12-11T03:17:43.068Z,4.93
2017-12-11T03:18:49.412Z,4.97
2017-12-11T03:19:55.581Z,4.97
2017-12-11T03:21:01.737Z,4.97
2017-12-11T03:22:07.927Z,4.98
2017-12-11T03:23:14.136Z,5.00
2017-12-11T03:24:20.431Z,5.04
2017-12-11T03:25:30.314Z,5.05
2017-12-11T03:26:36.559Z,5.01
2017-12-11T03:27:42.835Z,5.01
2017-12-11T03:28:49.004Z,4.98
2017-12-11T03:29:55.213Z,4.95
2017-12-11T03:31:01.068Z,4.96
2017-12-11T03:32:07.118Z,4.94
2017-12-11T03:33:12.660Z,4.95
2017-12-11T03:34:18.328Z,4.99
2017-12-11T03:35:24.622Z,4.99
2017-12-11T03:36:30.788Z,5.00
2017-12-11T03:37:36.954Z,4.99
2017-12-11T03:38:43.120Z,4.96
2017-12-11T03:39:53.329Z,4.92
2017-12-11T03:40:59.548Z,4.95
2017-12-11T03:42:05.782Z,4.99
2017-12-11T03:43:11.941Z,5.01
2017-12-11T03:44:18.188Z,5.00
2017-12-11T03:45:24.343Z,5.03
2017-12-11T03:46:30.526Z,5.07
2017-12-11T03:47:36.729Z,5.07
2017-12-11T03:48:42.600Z,5.03
2017-12-11T03:49:48.799Z,5.03
2017-12-11T03:50:54.652Z,4.99
2017-12-11T03:52:07.115Z,5.01
2017-12-11T03:53:12.966Z,5.01
2017-12-11T03:54:19.139Z,4.99
2017-12-11T03:55:25.352Z,5.03
2017-12-11T03:56:31.600Z,5.04
2017-12-11T03:57:38.088Z,5.03
2017-12-11T03:58:44.261Z,5.03
2017-12-11T03:59:50.083Z,5.01
2017-12-11T04:00:55.943Z,5.00
2017-12-11T04:02:02.130Z,5.07
2017-12-11T04:03:08.494Z,5.05
2017-12-11T04:04:14.655Z,5.02
2017-12-11T04:05:20.554Z,5.04
2017-12-11T04:06:34.130Z,5.09
2017-12-11T04:07:40.287Z,5.06
2017-12-11T04:08:46.184Z,5.02
2017-12-11T04:09:52.373Z,5.06
2017-12-11T04:10:58.562Z,5.04
2017-12-11T04:12:04.787Z,5.07
2017-12-11T04:13:10.966Z,5.11
2017-12-11T04:14:17.205Z,5.07
2017-12-11T04:15:23.382Z,5.04
2017-12-11T04:16:29.629Z,5.09
2017-12-11T04:17:40.693Z,5.09
2017-12-11T04:18:46.912Z,5.11
2017-12-11T04:19:53.065Z,5.16
2017-12-11T04:20:59.250Z,5.20
2017-12-11T04:22:08.889Z,5.21
2017-12-11T04:23:15.145Z,5.16
2017-12-11T04:24:21.316Z,5.17
2017-12-11T04:25:27.489Z,5.19
2017-12-11T04:26:33.729Z,5.21
2017-12-11T04:27:39.987Z,5.22
2017-12-11T04:28:46.181Z,5.20
2017-12-11T04:29:52.337Z,5.17
2017-12-11T04:30:58.494Z,5.20
2017-12-11T04:32:04.676Z,5.21
2017-12-11T04:33:10.863Z,5.27
2017-12-11T04:34:17.090Z,5.30
2017-12-11T04:35:23.292Z,5.33
2017-12-11T04:36:29.553Z,5.33
2017-12-11T04:37:35.717Z,5.33
2017-12-11T04:38:41.970Z,5.33
2017-12-11T04:39:48.152Z,5.26
2017-12-11T04:40:54.326Z,5.27
2017-12-11T04:42:00.543Z,5.30
2017-12-11T04:43:06.712Z,5.31
2017-12-11T04:44:12.967Z,5.30
2017-12-11T04:45:19.201Z,5.29
2017-12-11T04:46:25.372Z,5.35
2017-12-11T04:47:31.561Z,5.48
2017-12-11T04:48:37.774Z,5.47
2017-12-11T04:49:43.987Z,5.45
2017-12-11T04:50:49.886Z,5.46
2017-12-11T04:51:56.064Z,5.45
2017-12-11T04:53:02.239Z,5.42
2017-12-11T04:54:08.451Z,5.42
2017-12-11T04:55:14.758Z,5.46
2017-12-11T04:56:20.927Z,5.47
2017-12-11T04:57:27.172Z,5.51
2017-12-11T04:58:33.433Z,5.46
2017-12-11T04:59:39.596Z,5.50
2017-12-11T05:00:45.755Z,5.49
2017-12-11T05:01:51.946Z,5.44
2017-12-11T05:02:58.186Z,5.44
2017-12-11T05:04:04.398Z,5.46
2017-12-11T05:05:10.598Z,5.49
2017-12-11T05:06:16.731Z,5.53
2017-12-11T05:07:22.828Z,5.46
2017-12-11T05:08:28.933Z,5.46
2017-12-11T05:09:35.330Z,5.50
2017-12-11T05:10:40.929Z,5.56
2017-12-11T05:11:46.607Z,5.62
2017-12-11T05:12:52.909Z,5.60
2017-12-11T05:13:59.090Z,5.63
2017-12-11T05:15:07.246Z,5.64
2017-12-11T05:16:13.419Z,5.64
2017-12-11T05:17:19.620Z,5.59
2017-12-11T05:18:25.817Z,5.59
2017-12-11T05:19:32.084Z,5.62
2017-12-11T05:20:38.243Z,5.63
2017-12-11T05:21:44.220Z,5.63
2017-12-11T05:22:50.007Z,5.65
2017-12-11T05:23:56.428Z,5.67
2017-12-11T05:25:02.759Z,5.68
2017-12-11T05:26:08.989Z,5.66
2017-12-11T05:27:15.235Z,5.64
2017-12-11T05:28:20.800Z,5.64
2017-12-11T05:29:26.980Z,5.69
2017-12-11T05:30:33.195Z,5.73
2017-12-11T05:31:39.415Z,5.67
2017-12-11T05:32:45.624Z,5.68
2017-12-11T05:33:51.775Z,5.72
2017-12-11T05:34:57.991Z,5.72
2017-12-11T05:36:03.534Z,5.68
2017-12-11T05:37:09.253Z,5.69
2017-12-11T05:38:15.052Z,5.74
2017-12-11T05:39:21.344Z,5.69
2017-12-11T05:40:27.972Z,5.60
2017-12-11T05:41:35.272Z,5.60
2017-12-11T05:42:43.181Z,5.64
2017-12-11T05:43:49.922Z,5.65
2017-12-11T05:44:56.133Z,5.62
2017-12-11T05:46:01.999Z,5.58
2017-12-11T05:47:08.176Z,5.58
2017-12-11T05:48:14.362Z,5.54
2017-12-11T05:49:21.569Z,5.54
2017-12-11T05:50:27.796Z,5.51
2017-12-11T05:51:33.655Z,5.49
2017-12-11T05:52:39.820Z,5.52
2017-12-11T05:53:46.006Z,5.45
2017-12-11T05:54:52.327Z,5.47
2017-12-11T05:55:58.500Z,5.54
2017-12-11T05:57:04.684Z,5.49
2017-12-11T05:58:10.608Z,5.51
2017-12-11T05:59:16.765Z,5.56
2017-12-11T06:00:22.948Z,5.54
2017-12-11T06:01:28.908Z,5.54
2017-12-11T06:02:35.128Z,5.55
2017-12-11T06:03:41.424Z,5.55
2017-12-11T06:04:48.000Z,5.58
2017-12-11T06:05:55.265Z,5.57
2017-12-11T06:07:02.150Z,5.55
2017-12-11T06:08:08.625Z,5.53
2017-12-11T06:09:14.990Z,5.53
2017-12-11T06:10:21.681Z,5.54
2017-12-11T06:11:27.883Z,5.49
2017-12-11T06:12:34.374Z,5.49
2017-12-11T06:13:40.719Z,5.50
2017-12-11T06:14:46.904Z,5.47
2017-12-11T06:15:53.087Z,5.50
2017-12-11T06:16:59.270Z,5.51
2017-12-11T06:18:05.541Z,5.45
2017-12-11T06:19:11.717Z,5.49
2017-12-11T06:20:17.919Z,5.53
2017-12-11T06:21:24.119Z,5.47
2017-12-11T06:22:30.264Z,5.46
2017-12-11T06:23:36.439Z,5.48
2017-12-11T06:24:42.656Z,5.49
2017-12-11T06:25:48.867Z,5.52
2017-12-11T06:26:55.061Z,5.52
2017-12-11T06:28:01.292Z,5.54
2017-12-11T06:29:12.311Z,5.61
2017-12-11T06:30:18.465Z,5.62
2017-12-11T06:31:24.610Z,5.62
2017-12-11T06:32:30.550Z,5.59
2017-12-11T06:33:36.784Z,5.55
2017-12-11T06:34:43.858Z,5.54
2017-12-11T06:35:50.077Z,5.56
2017-12-11T06:36:56.334Z,5.55
2017-12-11T06:38:02.571Z,5.52
2017-12-11T06:39:08.787Z,5.48
2017-12-11T06:40:20.361Z,5.43
2017-12-11T06:41:26.538Z,5.41
2017-12-11T06:42:32.750Z,5.40
2017-12-11T06:43:39.011Z,5.40
2017-12-11T06:44:45.151Z,5.43
2017-12-11T06:45:51.307Z,5.46
2017-12-11T06:46:57.431Z,5.45
2017-12-11T06:48:03.624Z,5.45
2017-12-11T06:49:09.909Z,5.46
2017-12-11T06:50:16.196Z,5.48
2017-12-11T06:51:22.368Z,5.50
2017-12-11T06:52:32.657Z,5.51
2017-12-11T06:53:38.882Z,5.47
2017-12-11T06:54:45.058Z,5.47
2017-12-11T06:55:51.236Z,5.50
2017-12-11T06:56:57.555Z,5.49
2017-12-11T06:58:03.981Z,5.45
2017-12-11T06:59:10.175Z,5.43
2017-12-11T07:00:16.349Z,5.44
2017-12-11T07:01:22.542Z,5.45
2017-12-11T07:02:28.689Z,5.44
2017-12-11T07:03:34.830Z,5.42
2017-12-11T07:04:41.732Z,5.43
2017-12-11T07:05:47.912Z,5.46
2017-12-11T07:06:54.099Z,5.43
2017-12-11T07:08:00.346Z,5.37
2017-12-11T07:09:06.241Z,5.33
2017-12-11T07:10:12.463Z,5.30
2017-12-11T07:11:18.712Z,5.30
2017-12-11T07:12:24.948Z,5.32
2017-12-11T07:13:31.108Z,5.29
2017-12-11T07:14:37.303Z,5.25
2017-12-11T07:15:43.481Z,5.24
2017-12-11T07:16:49.491Z,5.23
2017-12-11T07:17:55.670Z,5.23
2017-12-11T07:19:01.890Z,5.26
2017-12-11T07:20:08.394Z,5.24
2017-12-11T07:21:14.592Z,5.23
2017-12-11T07:22:20.790Z,5.24
2017-12-11T07:23:26.956Z,5.28
2017-12-11T07:24:33.188Z,5.28
2017-12-11T07:25:39.395Z,5.25
2017-12-11T07:26:45.594Z,5.24
2017-12-11T07:27:51.856Z,5.14
2017-12-11T07:28:58.063Z,5.18
2017-12-11T07:30:04.362Z,5.17
2017-12-11T07:31:10.530Z,5.13
2017-12-11T07:32:16.713Z,5.12
2017-12-11T07:33:22.922Z,5.10
2017-12-11T07:34:29.071Z,5.10
2017-12-11T07:35:35.235Z,5.11
2017-12-11T07:36:41.157Z,5.10
2017-12-11T07:37:47.393Z,5.07
2017-12-11T07:38:53.616Z,4.90
2017-12-11T07:39:59.764Z,4.95
2017-12-11T07:41:05.944Z,5.00
2017-12-11T07:42:11.818Z,4.91
2017-12-11T07:43:18.165Z,4.94
2017-12-11T07:44:24.339Z,4.96
2017-12-11T07:45:30.530Z,5.06
2017-12-11T07:46:36.746Z,5.15
2017-12-11T07:47:42.898Z,5.20
2017-12-11T07:48:49.044Z,5.19
2017-12-11T07:49:55.222Z,5.18
2017-12-11T07:51:01.501Z,5.16
2017-12-11T07:52:07.972Z,5.20
2017-12-11T07:53:14.141Z,5.20
2017-12-11T07:54:20.304Z,5.19
2017-12-11T07:55:26.702Z,5.21
2017-12-11T07:56:32.908Z,5.20
2017-12-11T07:57:39.073Z,5.19
2017-12-11T07:58:45.302Z,5.13
2017-12-11T07:59:51.542Z,5.14
2017-12-11T08:00:57.926Z,5.15
2017-12-11T08:02:05.031Z,5.09
2017-12-11T08:03:10.923Z,5.11
2017-12-11T08:04:17.126Z,5.14
2017-12-11T08:05:23.279Z,5.15
2017-12-11T08:06:31.435Z,5.17
2017-12-11T08:07:37.625Z,5.17
2017-12-11T08:08:43.847Z,5.18
2017-12-11T08:09:50.058Z,5.18
2017-12-11T08:10:56.219Z,5.15
2017-12-11T08:12:02.537Z,5.15
2017-12-11T08:13:08.456Z,5.15
2017-12-11T08:14:14.605Z,5.16
2017-12-11T08:15:20.812Z,5.18
2017-12-11T08:16:26.991Z,5.25
2017-12-11T08:17:33.236Z,5.30
2017-12-11T08:18:39.475Z,5.31
2017-12-11T08:19:46.333Z,5.38
2017-12-11T08:20:52.718Z,5.37
2017-12-11T08:21:59.490Z,5.34
2017-12-11T08:23:10.508Z,5.32
2017-12-11T08:24:16.791Z,5.33
2017-12-11T08:25:23.490Z,5.28
2017-12-11T08:26:30.876Z,5.28
2017-12-11T08:27:37.746Z,5.27
2017-12-11T08:28:43.948Z,5.30
2017-12-11T08:29:50.166Z,5.32
2017-12-11T08:30:56.336Z,5.31
2017-12-11T08:32:02.544Z,5.32
2017-12-11T08:33:08.732Z,5.30
2017-12-11T08:34:15.689Z,5.32
2017-12-11T08:35:22.155Z,5.31
2017-12-11T08:36:28.380Z,5.29
2017-12-11T08:37:34.558Z,5.28
2017-12-11T08:38:40.845Z,5.22
2017-12-11T08:39:47.311Z,5.13
2017-12-11T08:40:53.951Z,5.13
2017-12-11T08:42:00.188Z,5.20
2017-12-11T08:43:06.451Z,5.24
2017-12-11T08:44:12.610Z,5.19
2017-12-11T08:45:18.843Z,5.10
2017-12-11T08:46:25.065Z,5.12
2017-12-11T08:47:31.233Z,5.12
2017-12-11T08:48:37.482Z,5.14
2017-12-11T08:49:43.699Z,5.14
2017-12-11T08:50:49.906Z,5.11
2017-12-11T08:51:56.138Z,5.13
2017-12-11T08:53:02.333Z,5.11
2017-12-11T08:54:14.526Z,5.17
2017-12-11T08:55:20.706Z,5.16
2017-12-11T08:56:27.197Z,5.14
2017-12-11T08:57:33.447Z,5.09
2017-12-11T08:58:42.306Z,5.07
2017-12-11T08:59:48.545Z,5.05
2017-12-11T09:00:54.420Z,5.04
2017-12-11T09:02:00.347Z,4.92
2017-12-11T09:03:06.568Z,4.93
2017-12-11T09:04:12.728Z,4.93
2017-12-11T09:05:19.084Z,4.86
2017-12-11T09:06:25.264Z,4.75
2017-12-11T09:07:31.480Z,4.80
2017-12-11T09:08:42.715Z,4.78
2017-12-11T09:09:48.930Z,4.86
2017-12-11T09:10:59.014Z,4.80
2017-12-11T09:12:04.537Z,4.44
2017-12-11T09:13:10.798Z,4.45
2017-12-11T09:14:17.058Z,4.51
2017-12-11T09:15:23.289Z,4.55
2017-12-11T09:16:29.476Z,4.35
2017-12-11T09:17:35.670Z,4.35
2017-12-11T09:18:41.822Z,4.49
2017-12-11T09:19:48.000Z,4.22
2017-12-11T09:20:54.247Z,4.15
2017-12-11T09:22:00.503Z,4.31
2017-12-11T09:23:06.675Z,4.33
2017-12-11T09:24:12.824Z,4.31
2017-12-11T09:25:19.077Z,4.27
2017-12-11T09:26:25.253Z,4.24
2017-12-11T09:27:31.444Z,4.30
2017-12-11T09:28:37.639Z,4.35
2017-12-11T09:29:43.847Z,4.20
2017-12-11T09:30:49.781Z,4.04
2017-12-11T09:31:58.873Z,4.03
2017-12-11T09:33:04.701Z,3.99
2017-12-11T09:34:10.955Z,4.07
2017-12-11T09:35:17.206Z,4.20
2017-12-11T09:36:23.459Z,4.23
2017-12-11T09:37:29.666Z,4.23
2017-12-11T09:38:35.901Z,4.28
2017-12-11T09:39:42.134Z,3.96
2017-12-11T09:40:48.356Z,4.05
2017-12-11T09:41:54.652Z,3.95
2017-12-11T09:43:00.889Z,4.02
2017-12-11T09:44:07.170Z,3.89
2017-12-11T09:45:13.024Z,3.94
2017-12-11T09:46:19.292Z,4.04
2017-12-11T09:47:25.534Z,3.91
2017-12-11T09:48:31.788Z,3.96
2017-12-11T09:49:38.559Z,4.03
2017-12-11T09:50:46.503Z,4.11
2017-12-11T09:51:54.894Z,4.12
2017-12-11T09:53:01.844Z,4.15
2017-12-11T09:54:08.408Z,4.03
2017-12-11T09:55:15.256Z,3.80
2017-12-11T09:56:22.312Z,3.87
2017-12-11T09:57:28.704Z,4.01
2017-12-11T09:58:36.067Z,4.07
2017-12-11T09:59:42.458Z,3.92
2017-12-11T10:00:49.292Z,3.95
2017-12-11T10:01:55.700Z,4.05
2017-12-11T10:03:02.596Z,4.11
2017-12-11T10:04:09.007Z,4.15
2017-12-11T10:05:17.616Z,4.12
2017-12-11T10:06:25.277Z,4.12
2017-12-11T10:07:32.643Z,4.10
2017-12-11T10:08:39.439Z,4.11
2017-12-11T10:09:46.064Z,4.11
2017-12-11T10:10:52.372Z,4.24
2017-12-11T10:11:58.606Z,4.24
2017-12-11T10:13:04.868Z,4.15
2017-12-11T10:14:11.436Z,4.17
2017-12-11T10:15:18.286Z,4.16
2017-12-11T10:16:25.900Z,4.07
2017-12-11T10:17:38.288Z,4.07
2017-12-11T10:18:45.385Z,4.05
2017-12-11T10:19:52.289Z,4.07
2017-12-11T10:20:58.888Z,4.18
2017-12-11T10:22:06.111Z,4.01
2017-12-11T10:23:12.442Z,4.05
2017-12-11T10:24:19.763Z,4.06
2017-12-11T10:25:27.858Z,4.05
2017-12-11T10:26:34.668Z,3.91
2017-12-11T10:27:42.028Z,3.99
2017-12-11T10:28:48.979Z,4.07
2017-12-11T10:29:55.560Z,4.19
2017-12-11T10:31:02.310Z,4.14
2017-12-11T10:32:11.851Z,4.22
2017-12-11T10:33:18.232Z,4.16
2017-12-11T10:34:25.162Z,4.17
2017-12-11T10:35:31.926Z,4.24
2017-12-11T10:36:38.779Z,4.18
2017-12-11T10:37:45.549Z,4.15
2017-12-11T10:38:52.087Z,4.16
2017-12-11T10:39:58.871Z,4.11
2017-12-11T10:41:07.278Z,4.12
2017-12-11T10:42:14.014Z,4.17
2017-12-11T10:43:20.928Z,3.96
2017-12-11T10:44:27.467Z,3.95
2017-12-11T10:45:34.620Z,4.05
2017-12-11T10:46:41.765Z,3.92
2017-12-11T10:47:48.687Z,3.79
2017-12-11T10:48:55.579Z,3.84
2017-12-11T10:50:04.922Z,3.92
2017-12-11T10:51:11.509Z,3.98
2017-12-11T10:52:18.731Z,4.02
2017-12-11T10:53:25.637Z,4.06
2017-12-11T10:54:32.565Z,3.99
2017-12-11T10:55:40.512Z,3.91
2017-12-11T10:56:48.998Z,3.86
2017-12-11T10:57:56.222Z,3.93
2017-12-11T10:59:03.884Z,3.98
2017-12-11T11:00:10.943Z,3.94
2017-12-11T11:01:16.904Z,4.03
2017-12-11T11:02:23.145Z,4.03
2017-12-11T11:03:29.393Z,4.00
2017-12-11T11:04:36.234Z,3.98
2017-12-11T11:05:43.039Z,4.03
2017-12-11T11:06:49.934Z,4.03
2017-12-11T11:07:57.605Z,3.83
2017-12-11T11:09:05.239Z,3.73
2017-12-11T11:10:13.123Z,3.81
2017-12-11T11:11:19.741Z,3.96
2017-12-11T11:12:26.015Z,3.98
2017-12-11T11:13:32.101Z,4.00
2017-12-11T11:14:38.434Z,3.79
2017-12-11T11:15:44.872Z,3.79
2017-12-11T11:16:51.060Z,3.70
2017-12-11T11:17:57.289Z,3.53
2017-12-11T11:19:03.556Z,3.46
2017-12-11T11:20:09.836Z,3.55
2017-12-11T11:21:16.098Z,3.55
2017-12-11T11:22:22.406Z,3.62
2017-12-11T11:23:28.662Z,3.60
2017-12-11T11:24:34.945Z,3.67
2017-12-11T11:25:42.162Z,3.61
2017-12-11T11:26:49.658Z,3.57
2017-12-11T11:27:57.153Z,3.64
2017-12-11T11:29:04.863Z,3.42
2017-12-11T11:30:12.117Z,3.46
2017-12-11T11:31:21.064Z,3.49
2017-12-11T11:32:28.735Z,3.46
2017-12-11T11:33:35.658Z,3.52
2017-12-11T11:34:43.054Z,3.60
2017-12-11T11:35:50.513Z,3.62
2017-12-11T11:36:58.443Z,3.65
2017-12-11T11:38:05.795Z,3.76
2017-12-11T11:39:14.246Z,3.91
2017-12-11T11:40:21.602Z,3.96
2017-12-11T11:41:28.992Z,4.02
2017-12-11T11:42:35.952Z,4.06
2017-12-11T11:43:43.304Z,4.04
2017-12-11T11:44:51.562Z,3.87
2017-12-11T11:46:02.086Z,3.93
2017-12-11T11:47:10.286Z,3.92
2017-12-11T11:48:17.391Z,3.92
2017-12-11T11:49:24.990Z,4.03
2017-12-11T11:50:33.275Z,4.03
2017-12-11T11:51:40.733Z,3.99
2017-12-11T11:52:48.331Z,4.00
2017-12-11T11:53:56.222Z,4.08
2017-12-11T11:55:03.146Z,3.82
2017-12-11T11:56:09.564Z,3.88
2017-12-11T11:57:16.674Z,3.86
2017-12-11T11:58:23.923Z,3.88
2017-12-11T11:59:31.361Z,3.80
2017-12-11T12:00:37.724Z,3.77
2017-12-11T12:01:43.416Z,3.68
2017-12-11T12:02:49.426Z,3.82
2017-12-11T12:03:56.192Z,3.86
2017-12-11T12:05:03.040Z,3.90
2017-12-11T12:06:09.239Z,3.94
2017-12-11T12:07:15.151Z,4.00
2017-12-11T12:08:21.516Z,3.99
2017-12-11T12:09:27.421Z,3.84
2017-12-11T12:10:33.672Z,3.76
2017-12-11T12:11:39.907Z,3.90
2017-12-11T12:12:46.149Z,3.96
2017-12-11T12:13:52.365Z,4.00
2017-12-11T12:14:58.776Z,4.00
2017-12-11T12:16:04.609Z,4.05
2017-12-11T12:17:10.468Z,4.10
2017-12-11T12:18:16.660Z,4.15
2017-12-11T12:19:22.894Z,4.18
2017-12-11T12:20:28.821Z,4.23
2017-12-11T12:21:35.075Z,4.22
2017-12-11T12:22:41.278Z,4.20
2017-12-11T12:23:47.194Z,3.97
2017-12-11T12:24:53.412Z,4.04
2017-12-11T12:25:59.389Z,4.08
2017-12-11T12:27:04.901Z,4.17
2017-12-11T12:28:11.198Z,4.21
2017-12-11T12:29:17.345Z,4.25
2017-12-11T12:30:23.614Z,4.28
2017-12-11T12:31:29.503Z,4.28
2017-12-11T12:32:35.747Z,4.32
2017-12-11T12:33:41.993Z,4.35
2017-12-11T12:34:48.254Z,4.36
2017-12-11T12:35:54.448Z,4.28
2017-12-11T12:37:00.627Z,4.28
2017-12-11T12:38:06.879Z,4.36
2017-12-11T12:39:13.141Z,4.44
2017-12-11T12:40:19.369Z,4.38
2017-12-11T12:41:25.301Z,4.35
2017-12-11T12:42:31.201Z,4.36
2017-12-11T12:43:37.401Z,4.39
2017-12-11T12:44:43.646Z,4.45
2017-12-11T12:45:54.842Z,4.35
2017-12-11T12:47:01.044Z,4.32
2017-12-11T12:48:13.513Z,4.21
2017-12-11T12:49:19.436Z,4.28
2017-12-11T12:50:25.685Z,4.32
2017-12-11T12:51:31.884Z,4.34
2017-12-11T12:52:37.838Z,4.39
2017-12-11T12:53:44.095Z,4.28
2017-12-11T12:54:50.351Z,4.34
2017-12-11T12:55:56.538Z,4.40
2017-12-11T12:57:02.746Z,4.18
2017-12-11T12:58:08.973Z,4.13
2017-12-11T12:59:15.269Z,4.22
2017-12-11T13:00:21.538Z,4.24
2017-12-11T13:01:27.775Z,4.31
2017-12-11T13:02:39.900Z,4.37
2017-12-11T13:03:46.132Z,4.47
2017-12-11T13:04:52.425Z,4.43
2017-12-11T13:05:58.618Z,4.52
2017-12-11T13:07:04.833Z,4.60
2017-12-11T13:08:11.063Z,4.60
2017-12-11T13:09:17.335Z,4.40
2017-12-11T13:10:23.608Z,4.27
2017-12-11T13:11:29.837Z,4.24
2017-12-11T13:12:36.043Z,4.34
2017-12-11T13:13:42.287Z,4.34
2017-12-11T13:14:48.555Z,4.29
2017-12-11T13:15:54.814Z,4.39
2017-12-11T13:17:01.042Z,4.37
2017-12-11T13:18:07.272Z,4.42
2017-12-11T13:19:19.680Z,4.37
2017-12-11T13:20:25.965Z,4.34
2017-12-11T13:21:32.253Z,4.39
2017-12-11T13:22:38.489Z,4.52
2017-12-11T13:23:44.717Z,4.58
2017-12-11T13:24:50.985Z,4.57
2017-12-11T13:25:57.206Z,4.55
2017-12-11T13:27:03.453Z,4.62
2017-12-11T13:28:09.712Z,4.71
2017-12-11T13:29:15.972Z,4.72
2017-12-11T13:30:22.235Z,4.80
2017-12-11T13:31:28.468Z,4.84
2017-12-11T13:32:34.726Z,4.90
2017-12-11T13:33:40.616Z,4.91
2017-12-11T13:34:46.815Z,4.99
2017-12-11T13:35:53.102Z,4.90
2017-12-11T13:36:59.340Z,4.98
2017-12-11T13:38:09.667Z,4.92
2017-12-11T13:39:15.922Z,4.94
2017-12-11T13:40:22.205Z,4.96
2017-12-11T13:41:28.749Z,4.88
2017-12-11T13:42:34.991Z,4.83
2017-12-11T13:43:41.193Z,4.92
2017-12-11T13:44:47.457Z,4.90
2017-12-11T13:45:53.713Z,4.81
2017-12-11T13:46:59.994Z,4.80
2017-12-11T13:48:06.267Z,4.83
2017-12-11T13:49:12.205Z,4.94
2017-12-11T13:50:18.461Z,4.90
2017-12-11T13:51:24.761Z,4.94
2017-12-11T13:52:31.027Z,4.98
2017-12-11T13:53:37.290Z,5.01
2017-12-11T13:54:43.588Z,5.04
2017-12-11T13:55:49.835Z,5.11
2017-12-11T13:56:56.148Z,5.09
2017-12-11T13:58:02.345Z,5.16
2017-12-11T13:59:09.525Z,5.17
2017-12-11T14:00:15.846Z,5.25
2017-12-11T14:01:22.104Z,5.27
2017-12-11T14:02:28.335Z,5.25
2017-12-11T14:03:34.601Z,5.28
2017-12-11T14:04:40.861Z,5.33
2017-12-11T14:05:47.051Z,5.34
2017-12-11T14:06:53.279Z,5.31
2017-12-11T14:07:59.546Z,5.32
2017-12-11T14:09:05.074Z,5.38
2017-12-11T14:10:11.303Z,5.41
2017-12-11T14:11:18.125Z,5.42
2017-12-11T14:12:24.245Z,5.35
2017-12-11T14:13:30.640Z,5.25
2017-12-11T14:14:36.839Z,5.25
2017-12-11T14:15:43.111Z,5.21
2017-12-11T14:16:49.372Z,5.22
2017-12-11T14:17:55.562Z,5.26
2017-12-11T14:19:01.831Z,5.31
2017-12-11T14:20:08.198Z,5.32
2017-12-11T14:21:14.407Z,5.34
2017-12-11T14:22:20.616Z,5.32
2017-12-11T14:23:26.508Z,5.31
2017-12-11T14:24:32.782Z,5.27
2017-12-11T14:25:38.977Z,5.32
2017-12-11T14:26:45.222Z,5.33
2017-12-11T14:27:51.460Z,5.31
2017-12-11T14:28:57.660Z,5.30
2017-12-11T14:30:03.903Z,5.35
2017-12-11T14:31:10.100Z,5.33
2017-12-11T14:32:16.348Z,5.33
2017-12-11T14:33:22.676Z,5.34
2017-12-11T14:34:28.945Z,5.38
2017-12-11T14:35:35.176Z,5.45
2017-12-11T14:36:41.417Z,5.52
2017-12-11T14:37:47.654Z,5.48
2017-12-11T14:38:53.921Z,5.42
2017-12-11T14:40:00.104Z,5.39
2017-12-11T14:41:06.350Z,5.38
2017-12-11T14:42:12.395Z,5.40
2017-12-11T14:43:18.657Z,5.41
2017-12-11T14:44:24.897Z,5.39